sensor_id;sensor_type;location;lat;lon;timestamp;P1;durP1;ratioP1;P2;durP2;ratioP2
18544;SDS011;9402;51.460;7.276;2023-07-28T00:00:11;7.10;;;5.87;;
18544;SDS011;9402;51.460;7.276;2023-07-28T00:02:13;5.30;;;4.80;;
18544;SDS011;9402;51.460;7.276;2023-07-28T00:04:14;11.93;;;5.80;;
18544;SDS011;9402;51.460;7.276;2023-07-28T00:06:16;8.80;;;5.80;;
18544;SDS011;9402;51.460;7.276;2023-07-28T00:08:17;6.47;;;5.80;;
18544;SDS011;9402;51.460;7.276;2023-07-28T00:10:19;8.77;;;6.37;;
18544;SDS011;9402;51.460;7.276;2023-07-28T00:12:21;10.93;;;7.30;;
18544;SDS011;9402;51.460;7.276;2023-07-28T00:14:22;15.77;;;6.97;;
18544;SDS011;9402;51.460;7.276;2023-07-28T00:16:25;7.80;;;7.03;;
18544;SDS011;9402;51.460;7.276;2023-07-28T00:18:27;6.90;;;6.20;;
18544;SDS011;9402;51.460;7.276;2023-07-28T00:20:29;7.63;;;6.93;;
18544;SDS011;9402;51.460;7.276;2023-07-28T00:22:31;8.20;;;6.40;;
18544;SDS011;9402;51.460;7.276;2023-07-28T00:24:32;11.53;;;6.57;;
18544;SDS011;9402;51.460;7.276;2023-07-28T00:26:34;12.93;;;6.57;;
18544;SDS011;9402;51.460;7.276;2023-07-28T00:28:35;7.17;;;6.50;;
18544;SDS011;9402;51.460;7.276;2023-07-28T00:30:37;6.87;;;6.17;;
18544;SDS011;9402;51.460;7.276;2023-07-28T00:32:38;11.63;;;6.83;;
18544;SDS011;9402;51.460;7.276;2023-07-28T00:34:41;10.10;;;6.60;;
18544;SDS011;9402;51.460;7.276;2023-07-28T00:36:43;7.23;;;6.17;;
18544;SDS011;9402;51.460;7.276;2023-07-28T00:38:44;9.93;;;6.80;;
18544;SDS011;9402;51.460;7.276;2023-07-28T00:40:45;5.70;;;5.13;;
18544;SDS011;9402;51.460;7.276;2023-07-28T00:42:47;8.17;;;5.87;;
18544;SDS011;9402;51.460;7.276;2023-07-28T00:44:48;10.50;;;6.90;;
18544;SDS011;9402;51.460;7.276;2023-07-28T00:46:50;8.23;;;5.87;;
18544;SDS011;9402;51.460;7.276;2023-07-28T00:48:52;7.53;;;5.40;;
18544;SDS011;9402;51.460;7.276;2023-07-28T00:50:55;6.83;;;5.23;;
18544;SDS011;9402;51.460;7.276;2023-07-28T00:52:57;6.53;;;5.20;;
18544;SDS011;9402;51.460;7.276;2023-07-28T00:54:59;8.40;;;5.30;;
18544;SDS011;9402;51.460;7.276;2023-07-28T00:57:00;7.00;;;4.43;;
18544;SDS011;9402;51.460;7.276;2023-07-28T00:59:03;4.03;;;3.70;;
18544;SDS011;9402;51.460;7.276;2023-07-28T01:01:04;4.53;;;3.77;;
18544;SDS011;9402;51.460;7.276;2023-07-28T01:03:06;4.80;;;4.33;;
18544;SDS011;9402;51.460;7.276;2023-07-28T01:05:08;6.73;;;4.10;;
18544;SDS011;9402;51.460;7.276;2023-07-28T01:07:13;11.33;;;4.23;;
18544;SDS011;9402;51.460;7.276;2023-07-28T01:09:21;7.10;;;3.33;;
18544;SDS011;9402;51.460;7.276;2023-07-28T01:11:25;4.40;;;3.80;;
18544;SDS011;9402;51.460;7.276;2023-07-28T01:13:26;6.27;;;4.30;;
18544;SDS011;9402;51.460;7.276;2023-07-28T01:15:28;4.07;;;3.43;;
18544;SDS011;9402;51.460;7.276;2023-07-28T01:17:30;5.67;;;3.70;;
18544;SDS011;9402;51.460;7.276;2023-07-28T01:19:31;3.77;;;3.27;;
18544;SDS011;9402;51.460;7.276;2023-07-28T01:21:33;4.27;;;3.80;;
18544;SDS011;9402;51.460;7.276;2023-07-28T01:23:41;4.13;;;3.53;;
18544;SDS011;9402;51.460;7.276;2023-07-28T01:25:49;4.47;;;4.07;;
18544;SDS011;9402;51.460;7.276;2023-07-28T01:27:58;3.80;;;3.50;;
18544;SDS011;9402;51.460;7.276;2023-07-28T01:30:00;4.80;;;3.97;;
18544;SDS011;9402;51.460;7.276;2023-07-28T01:32:02;3.17;;;2.97;;
18544;SDS011;9402;51.460;7.276;2023-07-28T01:34:05;8.33;;;4.60;;
18544;SDS011;9402;51.460;7.276;2023-07-28T01:36:06;4.13;;;3.83;;
18544;SDS011;9402;51.460;7.276;2023-07-28T01:38:07;9.03;;;4.10;;
18544;SDS011;9402;51.460;7.276;2023-07-28T01:40:08;5.00;;;4.60;;
18544;SDS011;9402;51.460;7.276;2023-07-28T01:42:10;4.10;;;3.80;;
18544;SDS011;9402;51.460;7.276;2023-07-28T01:44:12;4.40;;;4.00;;
18544;SDS011;9402;51.460;7.276;2023-07-28T01:46:14;4.60;;;4.20;;
18544;SDS011;9402;51.460;7.276;2023-07-28T01:48:15;8.43;;;5.20;;
18544;SDS011;9402;51.460;7.276;2023-07-28T01:50:17;9.57;;;5.10;;
18544;SDS011;9402;51.460;7.276;2023-07-28T01:52:19;5.43;;;4.97;;
18544;SDS011;9402;51.460;7.276;2023-07-28T01:54:21;4.10;;;3.60;;
18544;SDS011;9402;51.460;7.276;2023-07-28T01:56:23;5.13;;;4.63;;
18544;SDS011;9402;51.460;7.276;2023-07-28T01:58:24;10.70;;;6.27;;
18544;SDS011;9402;51.460;7.276;2023-07-28T02:00:27;7.73;;;4.70;;
18544;SDS011;9402;51.460;7.276;2023-07-28T02:02:29;5.93;;;5.37;;
18544;SDS011;9402;51.460;7.276;2023-07-28T02:04:30;4.83;;;4.43;;
18544;SDS011;9402;51.460;7.276;2023-07-28T02:06:32;4.37;;;3.97;;
18544;SDS011;9402;51.460;7.276;2023-07-28T02:08:34;5.43;;;4.80;;
18544;SDS011;9402;51.460;7.276;2023-07-28T02:10:35;5.10;;;4.57;;
18544;SDS011;9402;51.460;7.276;2023-07-28T02:12:36;4.80;;;4.40;;
18544;SDS011;9402;51.460;7.276;2023-07-28T02:14:37;4.60;;;3.57;;
18544;SDS011;9402;51.460;7.276;2023-07-28T02:16:40;3.13;;;2.93;;
18544;SDS011;9402;51.460;7.276;2023-07-28T02:18:42;3.83;;;3.53;;
18544;SDS011;9402;51.460;7.276;2023-07-28T02:20:43;3.60;;;3.30;;
18544;SDS011;9402;51.460;7.276;2023-07-28T02:22:45;2.77;;;2.57;;
18544;SDS011;9402;51.460;7.276;2023-07-28T02:24:47;2.77;;;2.57;;
18544;SDS011;9402;51.460;7.276;2023-07-28T02:26:47;2.33;;;2.17;;
18544;SDS011;9402;51.460;7.276;2023-07-28T02:28:49;3.40;;;3.10;;
18544;SDS011;9402;51.460;7.276;2023-07-28T02:30:50;9.50;;;2.90;;
18544;SDS011;9402;51.460;7.276;2023-07-28T02:32:53;4.43;;;2.50;;
18544;SDS011;9402;51.460;7.276;2023-07-28T02:34:55;5.00;;;2.40;;
18544;SDS011;9402;51.460;7.276;2023-07-28T02:36:55;3.13;;;2.30;;
18544;SDS011;9402;51.460;7.276;2023-07-28T02:38:58;2.40;;;2.30;;
18544;SDS011;9402;51.460;7.276;2023-07-28T02:40:58;3.10;;;2.43;;
18544;SDS011;9402;51.460;7.276;2023-07-28T02:43:00;2.60;;;2.23;;
18544;SDS011;9402;51.460;7.276;2023-07-28T02:45:02;2.30;;;2.10;;
18544;SDS011;9402;51.460;7.276;2023-07-28T02:47:04;2.30;;;2.20;;
18544;SDS011;9402;51.460;7.276;2023-07-28T02:49:07;3.40;;;3.10;;
18544;SDS011;9402;51.460;7.276;2023-07-28T02:51:08;2.40;;;2.30;;
18544;SDS011;9402;51.460;7.276;2023-07-28T02:53:10;3.40;;;3.03;;
18544;SDS011;9402;51.460;7.276;2023-07-28T02:55:12;5.50;;;2.30;;
18544;SDS011;9402;51.460;7.276;2023-07-28T02:57:13;2.67;;;2.33;;
18544;SDS011;9402;51.460;7.276;2023-07-28T02:59:15;4.07;;;1.73;;
18544;SDS011;9402;51.460;7.276;2023-07-28T03:01:16;3.33;;;2.57;;
18544;SDS011;9402;51.460;7.276;2023-07-28T03:03:18;2.87;;;2.27;;
18544;SDS011;9402;51.460;7.276;2023-07-28T03:05:21;2.23;;;1.63;;
18544;SDS011;9402;51.460;7.276;2023-07-28T03:07:22;2.17;;;1.97;;
18544;SDS011;9402;51.460;7.276;2023-07-28T03:09:24;2.17;;;2.00;;
18544;SDS011;9402;51.460;7.276;2023-07-28T03:11:25;2.30;;;1.93;;
18544;SDS011;9402;51.460;7.276;2023-07-28T03:13:26;4.10;;;2.50;;
18544;SDS011;9402;51.460;7.276;2023-07-28T03:15:28;2.43;;;2.23;;
18544;SDS011;9402;51.460;7.276;2023-07-28T03:17:29;2.27;;;2.07;;
18544;SDS011;9402;51.460;7.276;2023-07-28T03:19:31;3.13;;;2.53;;
18544;SDS011;9402;51.460;7.276;2023-07-28T03:21:34;2.80;;;1.40;;
18544;SDS011;9402;51.460;7.276;2023-07-28T03:23:36;2.37;;;2.10;;
18544;SDS011;9402;51.460;7.276;2023-07-28T03:25:37;2.53;;;2.17;;
18544;SDS011;9402;51.460;7.276;2023-07-28T03:27:39;5.33;;;1.90;;
18544;SDS011;9402;51.460;7.276;2023-07-28T03:29:40;1.97;;;1.77;;
18544;SDS011;9402;51.460;7.276;2023-07-28T03:31:42;4.33;;;2.47;;
18544;SDS011;9402;51.460;7.276;2023-07-28T03:33:43;1.83;;;1.73;;
18544;SDS011;9402;51.460;7.276;2023-07-28T03:35:45;2.00;;;1.90;;
18544;SDS011;9402;51.460;7.276;2023-07-28T03:37:48;1.93;;;1.77;;
18544;SDS011;9402;51.460;7.276;2023-07-28T03:39:50;1.87;;;1.53;;
18544;SDS011;9402;51.460;7.276;2023-07-28T03:41:51;1.80;;;1.70;;
18544;SDS011;9402;51.460;7.276;2023-07-28T03:43:53;3.40;;;1.50;;
18544;SDS011;9402;51.460;7.276;2023-07-28T03:45:54;1.60;;;1.50;;
18544;SDS011;9402;51.460;7.276;2023-07-28T03:47:55;1.30;;;1.20;;
18544;SDS011;9402;51.460;7.276;2023-07-28T03:49:56;1.63;;;1.30;;
18544;SDS011;9402;51.460;7.276;2023-07-28T03:51:58;1.40;;;1.30;;
18544;SDS011;9402;51.460;7.276;2023-07-28T03:54:01;1.20;;;1.10;;
18544;SDS011;9402;51.460;7.276;2023-07-28T03:56:03;1.13;;;1.13;;
18544;SDS011;9402;51.460;7.276;2023-07-28T03:58:05;1.40;;;1.30;;
18544;SDS011;9402;51.460;7.276;2023-07-28T04:00:06;1.57;;;1.20;;
18544;SDS011;9402;51.460;7.276;2023-07-28T04:02:08;3.03;;;1.30;;
18544;SDS011;9402;51.460;7.276;2023-07-28T04:04:10;1.40;;;1.30;;
18544;SDS011;9402;51.460;7.276;2023-07-28T04:06:11;1.30;;;1.20;;
18544;SDS011;9402;51.460;7.276;2023-07-28T04:08:13;1.20;;;1.10;;
18544;SDS011;9402;51.460;7.276;2023-07-28T04:10:16;1.60;;;1.50;;
18544;SDS011;9402;51.460;7.276;2023-07-28T04:12:17;1.50;;;1.40;;
18544;SDS011;9402;51.460;7.276;2023-07-28T04:14:18;2.80;;;1.30;;
18544;SDS011;9402;51.460;7.276;2023-07-28T04:16:20;1.67;;;1.33;;
18544;SDS011;9402;51.460;7.276;2023-07-28T04:18:21;1.00;;;1.00;;
18544;SDS011;9402;51.460;7.276;2023-07-28T04:20:23;1.50;;;1.40;;
18544;SDS011;9402;51.460;7.276;2023-07-28T04:22:25;2.60;;;1.60;;
18544;SDS011;9402;51.460;7.276;2023-07-28T04:24:26;1.17;;;1.00;;
18544;SDS011;9402;51.460;7.276;2023-07-28T04:26:29;1.40;;;1.23;;
18544;SDS011;9402;51.460;7.276;2023-07-28T04:28:31;1.43;;;1.33;;
18544;SDS011;9402;51.460;7.276;2023-07-28T04:30:32;1.50;;;1.40;;
18544;SDS011;9402;51.460;7.276;2023-07-28T04:32:34;4.43;;;1.27;;
18544;SDS011;9402;51.460;7.276;2023-07-28T04:34:36;4.50;;;1.50;;
18544;SDS011;9402;51.460;7.276;2023-07-28T04:36:37;1.30;;;1.20;;
18544;SDS011;9402;51.460;7.276;2023-07-28T04:38:39;3.10;;;1.70;;
18544;SDS011;9402;51.460;7.276;2023-07-28T04:40:39;1.70;;;1.60;;
18544;SDS011;9402;51.460;7.276;2023-07-28T04:42:42;3.50;;;1.70;;
18544;SDS011;9402;51.460;7.276;2023-07-28T04:44:44;1.87;;;1.50;;
18544;SDS011;9402;51.460;7.276;2023-07-28T04:46:46;1.37;;;1.27;;
18544;SDS011;9402;51.460;7.276;2023-07-28T04:48:47;1.50;;;1.40;;
18544;SDS011;9402;51.460;7.276;2023-07-28T04:50:49;1.73;;;1.20;;
18544;SDS011;9402;51.460;7.276;2023-07-28T04:52:51;3.00;;;1.20;;
18544;SDS011;9402;51.460;7.276;2023-07-28T04:54:52;5.37;;;1.47;;
18544;SDS011;9402;51.460;7.276;2023-07-28T04:56:54;2.17;;;1.30;;
18544;SDS011;9402;51.460;7.276;2023-07-28T04:58:57;1.30;;;1.20;;
18544;SDS011;9402;51.460;7.276;2023-07-28T05:00:59;7.70;;;1.60;;
18544;SDS011;9402;51.460;7.276;2023-07-28T05:03:01;2.60;;;1.20;;
18544;SDS011;9402;51.460;7.276;2023-07-28T05:05:03;1.10;;;1.10;;
18544;SDS011;9402;51.460;7.276;2023-07-28T05:07:05;2.40;;;1.00;;
18544;SDS011;9402;51.460;7.276;2023-07-28T05:09:06;1.30;;;1.10;;
18544;SDS011;9402;51.460;7.276;2023-07-28T05:11:09;1.60;;;1.50;;
18544;SDS011;9402;51.460;7.276;2023-07-28T05:13:09;8.03;;;1.40;;
18544;SDS011;9402;51.460;7.276;2023-07-28T05:15:13;1.20;;;1.10;;
18544;SDS011;9402;51.460;7.276;2023-07-28T05:17:16;2.67;;;1.00;;
18544;SDS011;9402;51.460;7.276;2023-07-28T05:19:17;0.90;;;0.90;;
18544;SDS011;9402;51.460;7.276;2023-07-28T05:21:19;1.40;;;1.30;;
18544;SDS011;9402;51.460;7.276;2023-07-28T05:23:21;2.27;;;1.57;;
18544;SDS011;9402;51.460;7.276;2023-07-28T05:25:22;1.57;;;1.47;;
18544;SDS011;9402;51.460;7.276;2023-07-28T05:27:24;1.50;;;1.30;;
18544;SDS011;9402;51.460;7.276;2023-07-28T05:29:26;2.30;;;1.30;;
18544;SDS011;9402;51.460;7.276;2023-07-28T05:31:28;1.33;;;1.23;;
18544;SDS011;9402;51.460;7.276;2023-07-28T05:33:31;1.63;;;1.30;;
18544;SDS011;9402;51.460;7.276;2023-07-28T05:35:32;4.70;;;1.60;;
18544;SDS011;9402;51.460;7.276;2023-07-28T05:37:33;1.63;;;1.20;;
18544;SDS011;9402;51.460;7.276;2023-07-28T05:39:35;1.23;;;1.13;;
18544;SDS011;9402;51.460;7.276;2023-07-28T05:41:36;1.77;;;1.40;;
18544;SDS011;9402;51.460;7.276;2023-07-28T05:43:39;1.50;;;1.20;;
18544;SDS011;9402;51.460;7.276;2023-07-28T05:45:45;1.87;;;1.43;;
18544;SDS011;9402;51.460;7.276;2023-07-28T05:47:48;1.53;;;1.43;;
18544;SDS011;9402;51.460;7.276;2023-07-28T05:49:50;2.00;;;1.73;;
18544;SDS011;9402;51.460;7.276;2023-07-28T05:51:53;1.50;;;1.40;;
18544;SDS011;9402;51.460;7.276;2023-07-28T05:53:55;2.03;;;1.40;;
18544;SDS011;9402;51.460;7.276;2023-07-28T05:55:56;1.93;;;1.70;;
18544;SDS011;9402;51.460;7.276;2023-07-28T05:57:58;3.90;;;2.00;;
18544;SDS011;9402;51.460;7.276;2023-07-28T06:00:00;2.50;;;1.90;;
18544;SDS011;9402;51.460;7.276;2023-07-28T06:02:02;2.30;;;2.20;;
18544;SDS011;9402;51.460;7.276;2023-07-28T06:04:05;2.97;;;2.70;;
18544;SDS011;9402;51.460;7.276;2023-07-28T06:06:06;3.53;;;3.23;;
18544;SDS011;9402;51.460;7.276;2023-07-28T06:08:08;5.40;;;3.90;;
18544;SDS011;9402;51.460;7.276;2023-07-28T06:10:10;3.10;;;2.90;;
18544;SDS011;9402;51.460;7.276;2023-07-28T06:12:11;3.60;;;3.17;;
18544;SDS011;9402;51.460;7.276;2023-07-28T06:14:13;5.50;;;4.43;;
18544;SDS011;9402;51.460;7.276;2023-07-28T06:16:15;4.70;;;4.20;;
18544;SDS011;9402;51.460;7.276;2023-07-28T06:18:16;7.77;;;5.13;;
18544;SDS011;9402;51.460;7.276;2023-07-28T06:20:19;6.47;;;4.83;;
18544;SDS011;9402;51.460;7.276;2023-07-28T06:22:21;13.83;;;6.17;;
18544;SDS011;9402;51.460;7.276;2023-07-28T06:24:22;6.47;;;5.77;;
18544;SDS011;9402;51.460;7.276;2023-07-28T06:26:24;12.30;;;5.87;;
18544;SDS011;9402;51.460;7.276;2023-07-28T06:28:26;8.43;;;6.63;;
18544;SDS011;9402;51.460;7.276;2023-07-28T06:30:27;8.67;;;6.17;;
18544;SDS011;9402;51.460;7.276;2023-07-28T06:32:29;10.93;;;7.57;;
18544;SDS011;9402;51.460;7.276;2023-07-28T06:34:31;12.13;;;8.00;;
18544;SDS011;9402;51.460;7.276;2023-07-28T06:36:34;11.33;;;7.77;;
18544;SDS011;9402;51.460;7.276;2023-07-28T06:38:35;15.10;;;8.40;;
18544;SDS011;9402;51.460;7.276;2023-07-28T06:40:38;10.50;;;7.50;;
18544;SDS011;9402;51.460;7.276;2023-07-28T06:42:39;14.80;;;8.00;;
18544;SDS011;9402;51.460;7.276;2023-07-28T06:44:41;15.80;;;8.80;;
18544;SDS011;9402;51.460;7.276;2023-07-28T06:46:43;16.53;;;7.83;;
18544;SDS011;9402;51.460;7.276;2023-07-28T06:48:44;21.07;;;8.47;;
18544;SDS011;9402;51.460;7.276;2023-07-28T06:50:46;12.43;;;7.13;;
18544;SDS011;9402;51.460;7.276;2023-07-28T06:52:49;15.23;;;7.20;;
18544;SDS011;9402;51.460;7.276;2023-07-28T06:54:50;9.93;;;6.60;;
18544;SDS011;9402;51.460;7.276;2023-07-28T06:56:51;16.93;;;7.80;;
18544;SDS011;9402;51.460;7.276;2023-07-28T06:58:53;13.43;;;7.73;;
18544;SDS011;9402;51.460;7.276;2023-07-28T07:00:54;12.20;;;7.80;;
18544;SDS011;9402;51.460;7.276;2023-07-28T07:02:58;10.43;;;7.83;;
18544;SDS011;9402;51.460;7.276;2023-07-28T07:04:59;10.30;;;8.10;;
18544;SDS011;9402;51.460;7.276;2023-07-28T07:07:01;10.93;;;8.30;;
18544;SDS011;9402;51.460;7.276;2023-07-28T07:09:04;15.77;;;9.17;;
18544;SDS011;9402;51.460;7.276;2023-07-28T07:11:06;17.00;;;10.30;;
18544;SDS011;9402;51.460;7.276;2023-07-28T07:13:08;14.93;;;9.60;;
18544;SDS011;9402;51.460;7.276;2023-07-28T07:15:09;18.63;;;10.00;;
18544;SDS011;9402;51.460;7.276;2023-07-28T07:17:11;19.00;;;10.83;;
18544;SDS011;9402;51.460;7.276;2023-07-28T07:19:12;16.70;;;10.70;;
18544;SDS011;9402;51.460;7.276;2023-07-28T07:21:15;22.13;;;11.50;;
18544;SDS011;9402;51.460;7.276;2023-07-28T07:23:17;17.23;;;10.23;;
18544;SDS011;9402;51.460;7.276;2023-07-28T07:25:20;12.40;;;10.23;;
18544;SDS011;9402;51.460;7.276;2023-07-28T07:27:23;14.03;;;9.63;;
18544;SDS011;9402;51.460;7.276;2023-07-28T07:29:25;17.27;;;10.47;;
18544;SDS011;9402;51.460;7.276;2023-07-28T07:31:26;10.93;;;8.73;;
18544;SDS011;9402;51.460;7.276;2023-07-28T07:33:28;17.60;;;10.80;;
18544;SDS011;9402;51.460;7.276;2023-07-28T07:35:30;30.20;;;11.17;;
18544;SDS011;9402;51.460;7.276;2023-07-28T07:37:31;12.43;;;9.90;;
18544;SDS011;9402;51.460;7.276;2023-07-28T07:39:33;13.27;;;10.93;;
18544;SDS011;9402;51.460;7.276;2023-07-28T07:41:37;15.57;;;11.60;;
18544;SDS011;9402;51.460;7.276;2023-07-28T07:43:39;19.17;;;12.20;;
18544;SDS011;9402;51.460;7.276;2023-07-28T07:45:41;17.63;;;10.93;;
18544;SDS011;9402;51.460;7.276;2023-07-28T07:47:44;19.70;;;12.07;;
18544;SDS011;9402;51.460;7.276;2023-07-28T07:49:45;15.07;;;11.70;;
18544;SDS011;9402;51.460;7.276;2023-07-28T07:51:47;18.50;;;12.47;;
18544;SDS011;9402;51.460;7.276;2023-07-28T07:53:49;24.23;;;11.97;;
18544;SDS011;9402;51.460;7.276;2023-07-28T07:55:50;19.30;;;13.67;;
18544;SDS011;9402;51.460;7.276;2023-07-28T07:57:52;25.13;;;14.90;;
18544;SDS011;9402;51.460;7.276;2023-07-28T07:59:54;22.17;;;14.80;;
18544;SDS011;9402;51.460;7.276;2023-07-28T08:01:55;27.43;;;17.63;;
18544;SDS011;9402;51.460;7.276;2023-07-28T08:04:00;27.20;;;17.40;;
18544;SDS011;9402;51.460;7.276;2023-07-28T08:06:01;33.37;;;21.90;;
18544;SDS011;9402;51.460;7.276;2023-07-28T08:08:04;35.20;;;21.70;;
18544;SDS011;9402;51.460;7.276;2023-07-28T08:10:07;36.40;;;23.30;;
18544;SDS011;9402;51.460;7.276;2023-07-28T08:12:08;36.17;;;23.37;;
18544;SDS011;9402;51.460;7.276;2023-07-28T08:14:11;32.00;;;22.30;;
18544;SDS011;9402;51.460;7.276;2023-07-28T08:16:13;41.50;;;27.53;;
18544;SDS011;9402;51.460;7.276;2023-07-28T08:18:15;40.53;;;29.60;;
18544;SDS011;9402;51.460;7.276;2023-07-28T08:20:16;49.80;;;32.97;;
18544;SDS011;9402;51.460;7.276;2023-07-28T08:22:18;48.40;;;30.37;;
18544;SDS011;9402;51.460;7.276;2023-07-28T08:24:19;46.80;;;28.87;;
18544;SDS011;9402;51.460;7.276;2023-07-28T08:26:21;49.03;;;29.60;;
18544;SDS011;9402;51.460;7.276;2023-07-28T08:28:23;30.03;;;22.57;;
18544;SDS011;9402;51.460;7.276;2023-07-28T08:30:26;23.77;;;18.00;;
18544;SDS011;9402;51.460;7.276;2023-07-28T08:32:27;21.77;;;15.13;;
18544;SDS011;9402;51.460;7.276;2023-07-28T08:34:29;11.87;;;9.70;;
18544;SDS011;9402;51.460;7.276;2023-07-28T08:36:30;17.13;;;11.63;;
18544;SDS011;9402;51.460;7.276;2023-07-28T08:38:32;8.57;;;7.33;;
18544;SDS011;9402;51.460;7.276;2023-07-28T08:40:33;9.47;;;7.57;;
18544;SDS011;9402;51.460;7.276;2023-07-28T08:42:36;7.10;;;5.77;;
18544;SDS011;9402;51.460;7.276;2023-07-28T08:44:38;6.00;;;5.37;;
18544;SDS011;9402;51.460;7.276;2023-07-28T08:46:41;6.40;;;5.70;;
18544;SDS011;9402;51.460;7.276;2023-07-28T08:48:43;7.47;;;5.43;;
18544;SDS011;9402;51.460;7.276;2023-07-28T08:50:44;11.20;;;8.50;;
18544;SDS011;9402;51.460;7.276;2023-07-28T08:52:46;12.50;;;9.17;;
18544;SDS011;9402;51.460;7.276;2023-07-28T08:54:50;11.20;;;8.70;;
18544;SDS011;9402;51.460;7.276;2023-07-28T08:56:51;8.70;;;7.80;;
18544;SDS011;9402;51.460;7.276;2023-07-28T08:58:57;11.13;;;8.10;;
18544;SDS011;9402;51.460;7.276;2023-07-28T09:00:59;7.10;;;6.40;;
18544;SDS011;9402;51.460;7.276;2023-07-28T09:03:03;7.67;;;6.10;;
18544;SDS011;9402;51.460;7.276;2023-07-28T09:05:04;6.50;;;5.70;;
18544;SDS011;9402;51.460;7.276;2023-07-28T09:07:06;6.87;;;5.00;;
18544;SDS011;9402;51.460;7.276;2023-07-28T09:09:08;6.87;;;5.77;;
18544;SDS011;9402;51.460;7.276;2023-07-28T09:11:09;8.50;;;7.60;;
18544;SDS011;9402;51.460;7.276;2023-07-28T09:13:13;8.97;;;6.53;;
18544;SDS011;9402;51.460;7.276;2023-07-28T09:15:16;7.20;;;6.37;;
18544;SDS011;9402;51.460;7.276;2023-07-28T09:17:18;7.53;;;6.80;;
18544;SDS011;9402;51.460;7.276;2023-07-28T09:19:21;7.47;;;6.77;;
18544;SDS011;9402;51.460;7.276;2023-07-28T09:21:22;7.90;;;6.63;;
18544;SDS011;9402;51.460;7.276;2023-07-28T09:23:27;6.03;;;5.43;;
18544;SDS011;9402;51.460;7.276;2023-07-28T09:25:30;3.93;;;3.53;;
18544;SDS011;9402;51.460;7.276;2023-07-28T09:27:31;5.50;;;4.20;;
18544;SDS011;9402;51.460;7.276;2023-07-28T09:29:33;3.40;;;3.20;;
18544;SDS011;9402;51.460;7.276;2023-07-28T09:31:36;2.13;;;1.93;;
18544;SDS011;9402;51.460;7.276;2023-07-28T09:33:38;2.23;;;2.13;;
18544;SDS011;9402;51.460;7.276;2023-07-28T09:35:50;1.60;;;1.50;;
18544;SDS011;9402;51.460;7.276;2023-07-28T09:37:51;2.17;;;1.67;;
18544;SDS011;9402;51.460;7.276;2023-07-28T09:39:55;1.97;;;1.47;;
18544;SDS011;9402;51.460;7.276;2023-07-28T09:41:56;1.60;;;1.50;;
18544;SDS011;9402;51.460;7.276;2023-07-28T09:43:59;1.70;;;1.60;;
18544;SDS011;9402;51.460;7.276;2023-07-28T09:46:02;1.77;;;1.67;;
18544;SDS011;9402;51.460;7.276;2023-07-28T09:48:05;3.33;;;1.70;;
18544;SDS011;9402;51.460;7.276;2023-07-28T09:50:08;2.00;;;1.80;;
18544;SDS011;9402;51.460;7.276;2023-07-28T09:52:11;1.87;;;1.77;;
18544;SDS011;9402;51.460;7.276;2023-07-28T09:54:16;1.90;;;1.80;;
18544;SDS011;9402;51.460;7.276;2023-07-28T09:56:26;3.50;;;1.70;;
18544;SDS011;9402;51.460;7.276;2023-07-28T09:58:29;2.43;;;1.40;;
18544;SDS011;9402;51.460;7.276;2023-07-28T10:00:33;1.77;;;1.67;;
18544;SDS011;9402;51.460;7.276;2023-07-28T10:02:35;2.47;;;2.27;;
18544;SDS011;9402;51.460;7.276;2023-07-28T10:04:36;2.17;;;1.97;;
18544;SDS011;9402;51.460;7.276;2023-07-28T10:06:38;3.47;;;2.50;;
18544;SDS011;9402;51.460;7.276;2023-07-28T10:08:41;3.07;;;2.87;;
18544;SDS011;9402;51.460;7.276;2023-07-28T10:10:43;2.20;;;2.00;;
18544;SDS011;9402;51.460;7.276;2023-07-28T10:12:46;3.10;;;2.90;;
18544;SDS011;9402;51.460;7.276;2023-07-28T10:14:51;2.93;;;2.63;;
18544;SDS011;9402;51.460;7.276;2023-07-28T10:17:01;2.63;;;2.43;;
18544;SDS011;9402;51.460;7.276;2023-07-28T10:19:02;2.27;;;2.17;;
18544;SDS011;9402;51.460;7.276;2023-07-28T10:21:05;5.20;;;2.90;;
18544;SDS011;9402;51.460;7.276;2023-07-28T10:23:11;4.60;;;2.97;;
18544;SDS011;9402;51.460;7.276;2023-07-28T10:25:15;3.10;;;2.90;;
18544;SDS011;9402;51.460;7.276;2023-07-28T10:27:29;3.30;;;3.10;;
18544;SDS011;9402;51.460;7.276;2023-07-28T10:29:31;3.13;;;2.90;;
18544;SDS011;9402;51.460;7.276;2023-07-28T10:31:49;4.40;;;3.50;;
18544;SDS011;9402;51.460;7.276;2023-07-28T10:33:53;3.80;;;3.60;;
18544;SDS011;9402;51.460;7.276;2023-07-28T10:35:55;4.77;;;3.63;;
18544;SDS011;9402;51.460;7.276;2023-07-28T10:37:57;4.50;;;3.70;;
18544;SDS011;9402;51.460;7.276;2023-07-28T10:42:27;4.03;;;3.73;;
18544;SDS011;9402;51.460;7.276;2023-07-28T10:44:29;4.70;;;4.30;;
18544;SDS011;9402;51.460;7.276;2023-07-28T10:46:34;11.13;;;8.03;;
18544;SDS011;9402;51.460;7.276;2023-07-28T10:48:37;7.33;;;6.63;;
18544;SDS011;9402;51.460;7.276;2023-07-28T10:50:42;10.80;;;7.33;;
18544;SDS011;9402;51.460;7.276;2023-07-28T10:52:45;11.73;;;8.93;;
18544;SDS011;9402;51.460;7.276;2023-07-28T10:54:47;7.50;;;6.50;;
18544;SDS011;9402;51.460;7.276;2023-07-28T10:56:50;6.43;;;5.80;;
18544;SDS011;9402;51.460;7.276;2023-07-28T10:58:55;7.47;;;5.60;;
18544;SDS011;9402;51.460;7.276;2023-07-28T11:00:57;5.70;;;4.60;;
18544;SDS011;9402;51.460;7.276;2023-07-28T11:02:59;9.70;;;3.80;;
18544;SDS011;9402;51.460;7.276;2023-07-28T11:05:05;5.00;;;4.60;;
18544;SDS011;9402;51.460;7.276;2023-07-28T11:07:07;5.30;;;4.13;;
18544;SDS011;9402;51.460;7.276;2023-07-28T11:09:09;4.50;;;4.10;;
18544;SDS011;9402;51.460;7.276;2023-07-28T11:11:10;6.60;;;3.77;;
18544;SDS011;9402;51.460;7.276;2023-07-28T11:13:13;4.37;;;4.03;;
18544;SDS011;9402;51.460;7.276;2023-07-28T11:15:15;3.33;;;3.13;;
18544;SDS011;9402;51.460;7.276;2023-07-28T11:17:17;4.37;;;3.50;;
18544;SDS011;9402;51.460;7.276;2023-07-28T11:19:18;3.40;;;3.10;;
18544;SDS011;9402;51.460;7.276;2023-07-28T11:21:24;3.10;;;2.90;;
18544;SDS011;9402;51.460;7.276;2023-07-28T11:23:26;3.23;;;3.00;;
18544;SDS011;9402;51.460;7.276;2023-07-28T11:25:29;2.87;;;2.67;;
18544;SDS011;9402;51.460;7.276;2023-07-28T11:27:31;3.70;;;2.73;;
18544;SDS011;9402;51.460;7.276;2023-07-28T11:29:35;4.80;;;2.67;;
18544;SDS011;9402;51.460;7.276;2023-07-28T11:31:36;3.07;;;2.77;;
18544;SDS011;9402;51.460;7.276;2023-07-28T11:33:38;2.80;;;2.53;;
18544;SDS011;9402;51.460;7.276;2023-07-28T11:35:40;2.60;;;2.40;;
18544;SDS011;9402;51.460;7.276;2023-07-28T11:37:45;2.07;;;1.90;;
18544;SDS011;9402;51.460;7.276;2023-07-28T11:39:48;2.70;;;2.50;;
18544;SDS011;9402;51.460;7.276;2023-07-28T11:41:49;2.47;;;2.27;;
18544;SDS011;9402;51.460;7.276;2023-07-28T11:43:53;2.13;;;2.03;;
18544;SDS011;9402;51.460;7.276;2023-07-28T11:45:56;8.03;;;2.43;;
18544;SDS011;9402;51.460;7.276;2023-07-28T11:47:57;2.83;;;2.10;;
18544;SDS011;9402;51.460;7.276;2023-07-28T11:50:01;2.80;;;2.07;;
18544;SDS011;9402;51.460;7.276;2023-07-28T11:52:03;1.70;;;1.60;;
18544;SDS011;9402;51.460;7.276;2023-07-28T11:54:06;2.27;;;2.07;;
18544;SDS011;9402;51.460;7.276;2023-07-28T11:56:08;1.90;;;1.80;;
18544;SDS011;9402;51.460;7.276;2023-07-28T11:58:09;1.80;;;1.70;;
18544;SDS011;9402;51.460;7.276;2023-07-28T12:00:13;1.97;;;1.87;;
18544;SDS011;9402;51.460;7.276;2023-07-28T12:02:23;3.33;;;1.67;;
18544;SDS011;9402;51.460;7.276;2023-07-28T12:04:26;1.70;;;1.60;;
18544;SDS011;9402;51.460;7.276;2023-07-28T12:06:29;1.73;;;1.63;;
18544;SDS011;9402;51.460;7.276;2023-07-28T12:08:33;3.97;;;2.17;;
18544;SDS011;9402;51.460;7.276;2023-07-28T12:10:35;1.80;;;1.70;;
18544;SDS011;9402;51.460;7.276;2023-07-28T12:12:41;2.90;;;1.80;;
18544;SDS011;9402;51.460;7.276;2023-07-28T12:14:43;2.30;;;2.10;;
18544;SDS011;9402;51.460;7.276;2023-07-28T12:16:47;2.50;;;1.77;;
18544;SDS011;9402;51.460;7.276;2023-07-28T12:18:50;2.20;;;2.00;;
18544;SDS011;9402;51.460;7.276;2023-07-28T12:20:59;4.00;;;2.20;;
18544;SDS011;9402;51.460;7.276;2023-07-28T12:23:00;2.03;;;1.83;;
18544;SDS011;9402;51.460;7.276;2023-07-28T12:25:01;5.27;;;2.47;;
18544;SDS011;9402;51.460;7.276;2023-07-28T12:27:04;6.67;;;1.97;;